createdAt,value
2018-07-26T00:00:21.099Z,23.50
2018-07-26T00:02:49.492Z,23.40
2018-07-26T00:05:18.288Z,23.30
2018-07-26T00:07:46.664Z,23.30
2018-07-26T00:10:15.052Z,23.30
2018-07-26T00:12:43.439Z,23.30
2018-07-26T00:15:12.372Z,23.10
2018-07-26T00:17:40.807Z,23.10
2018-07-26T00:20:09.217Z,23.00
2018-07-26T00:22:37.740Z,22.90
2018-07-26T00:25:06.110Z,23.00
2018-07-26T00:27:34.525Z,22.80
2018-07-26T00:30:02.896Z,22.70
2018-07-26T00:32:31.255Z,22.70
2018-07-26T00:34:59.795Z,22.60
2018-07-26T00:37:28.176Z,22.60
2018-07-26T00:39:56.536Z,22.60
2018-07-26T00:42:24.953Z,22.60
2018-07-26T00:44:53.352Z,22.50
2018-07-26T00:52:18.334Z,22.30
2018-07-26T00:54:46.707Z,22.30
2018-07-26T00:57:15.107Z,22.20
2018-07-26T00:59:43.472Z,22.20
2018-07-26T01:02:11.880Z,22.10
2018-07-26T01:04:40.376Z,22.10
2018-07-26T01:07:08.805Z,22.10
2018-07-26T01:09:37.267Z,22.00
2018-07-26T01:12:05.816Z,22.00
2018-07-26T01:14:34.183Z,22.00
2018-07-26T01:17:02.716Z,22.00
2018-07-26T01:19:31.100Z,22.00
2018-07-26T01:21:59.547Z,21.90
2018-07-26T01:24:27.956Z,21.80
2018-07-26T01:26:56.662Z,21.80
2018-07-26T01:29:25.117Z,21.80
2018-07-26T01:34:24.480Z,21.80
2018-07-26T01:36:53.530Z,21.70
2018-07-26T01:39:22.084Z,21.70
2018-07-26T01:41:51.144Z,21.70
2018-07-26T01:44:23.945Z,21.60
2018-07-26T01:46:52.365Z,21.60
2018-07-26T01:51:48.964Z,21.70
2018-07-26T01:54:17.679Z,21.70
2018-07-26T01:56:46.077Z,21.60
2018-07-26T01:59:14.471Z,21.60
2018-07-26T02:01:43.039Z,21.60
2018-07-26T02:04:11.442Z,21.50
2018-07-26T02:06:39.840Z,21.50
2018-07-26T02:09:09.764Z,21.60
2018-07-26T02:11:38.152Z,21.50
2018-07-26T02:14:10.776Z,21.50
2018-07-26T02:16:39.180Z,21.50
2018-07-26T02:19:08.044Z,21.50
2018-07-26T02:21:36.453Z,21.50
2018-07-26T02:24:04.810Z,21.50
2018-07-26T02:29:01.282Z,21.50
2018-07-26T02:31:29.702Z,21.30
2018-07-26T02:33:58.060Z,21.40
2018-07-26T02:36:26.427Z,21.30
2018-07-26T02:38:54.916Z,21.20
2018-07-26T02:41:23.287Z,21.30
2018-07-26T02:43:51.645Z,21.30
2018-07-26T02:46:19.997Z,21.20
2018-07-26T02:48:48.352Z,21.20
2018-07-26T02:51:16.887Z,21.10
2018-07-26T02:53:45.227Z,21.20
2018-07-26T02:56:13.559Z,21.10
2018-07-26T02:58:41.913Z,21.00
2018-07-26T03:01:10.276Z,21.00
2018-07-26T03:03:38.616Z,21.00
2018-07-26T03:06:07.112Z,21.00
2018-07-26T03:08:35.451Z,21.00
2018-07-26T03:11:03.846Z,20.90
2018-07-26T03:13:32.430Z,20.80
2018-07-26T03:16:00.792Z,20.80
2018-07-26T03:18:29.176Z,20.80
2018-07-26T03:20:57.719Z,20.90
2018-07-26T03:23:26.031Z,20.90
2018-07-26T03:25:54.396Z,20.90
2018-07-26T03:28:23.552Z,20.70
2018-07-26T03:30:51.948Z,20.70
2018-07-26T03:33:20.289Z,20.80
2018-07-26T03:35:48.791Z,20.90
2018-07-26T03:38:17.136Z,20.90
2018-07-26T03:40:45.609Z,20.70
2018-07-26T03:43:14.053Z,20.50
2018-07-26T03:45:42.394Z,20.50
2018-07-26T03:48:10.736Z,20.60
2018-07-26T03:50:39.103Z,20.60
2018-07-26T03:53:07.471Z,20.50
2018-07-26T03:55:35.807Z,20.50
2018-07-26T03:58:04.204Z,20.50
2018-07-26T04:00:32.616Z,20.50
2018-07-26T04:03:00.981Z,20.50
2018-07-26T04:05:29.370Z,20.50
2018-07-26T04:07:57.727Z,20.50
2018-07-26T04:10:26.072Z,20.40
2018-07-26T04:12:54.564Z,20.40
2018-07-26T04:15:22.981Z,20.40
2018-07-26T04:18:01.948Z,20.40
2018-07-26T04:20:30.271Z,20.50
2018-07-26T04:22:58.688Z,20.40
2018-07-26T04:32:51.396Z,20.40
2018-07-26T04:35:19.741Z,20.30
2018-07-26T04:37:48.188Z,20.30
2018-07-26T04:40:16.583Z,20.30
2018-07-26T04:42:45.100Z,20.30
2018-07-26T04:47:43.280Z,20.40
2018-07-26T04:50:11.642Z,20.30
2018-07-26T04:52:39.981Z,20.40
2018-07-26T04:55:08.508Z,20.40
2018-07-26T04:57:36.908Z,20.40
2018-07-26T05:00:06.000Z,20.50
2018-07-26T05:02:34.540Z,20.60
2018-07-26T05:05:03.079Z,20.60
2018-07-26T05:07:31.435Z,20.70
2018-07-26T05:10:00.176Z,20.70
2018-07-26T05:12:28.614Z,20.60
2018-07-26T05:14:57.016Z,20.60
2018-07-26T05:17:25.999Z,20.60
2018-07-26T05:19:54.331Z,20.70
2018-07-26T05:22:22.661Z,20.80
2018-07-26T05:24:51.117Z,20.90
2018-07-26T05:27:20.692Z,20.90
2018-07-26T05:29:49.007Z,20.90
2018-07-26T05:32:17.566Z,21.00
2018-07-26T05:34:46.342Z,21.00
2018-07-26T05:37:14.717Z,21.00
2018-07-26T05:39:43.277Z,21.10
2018-07-26T05:42:11.837Z,21.20
2018-07-26T05:44:40.456Z,21.40
2018-07-26T05:47:09.859Z,21.20
2018-07-26T05:49:38.236Z,21.30
2018-07-26T05:52:06.963Z,21.50
2018-07-26T05:54:35.411Z,21.60
2018-07-26T05:57:03.824Z,21.70
2018-07-26T05:59:32.191Z,21.60
2018-07-26T06:02:00.816Z,21.70
2018-07-26T06:04:29.304Z,22.10
2018-07-26T06:06:58.319Z,23.10
2018-07-26T06:09:27.356Z,23.50
2018-07-26T06:11:55.774Z,23.70
2018-07-26T06:14:24.407Z,23.90
2018-07-26T06:16:53.429Z,23.90
2018-07-26T06:19:21.787Z,23.70
2018-07-26T06:21:50.132Z,24.00
2018-07-26T06:24:18.532Z,23.70
2018-07-26T06:26:47.035Z,23.40
2018-07-26T06:29:15.449Z,23.40
2018-07-26T06:31:44.662Z,23.40
2018-07-26T06:34:13.016Z,23.50
2018-07-26T06:36:41.388Z,23.50
2018-07-26T06:39:11.799Z,23.70
2018-07-26T06:41:40.450Z,24.00
2018-07-26T06:44:08.828Z,23.90
2018-07-26T06:46:37.380Z,23.90
2018-07-26T06:49:06.176Z,24.00
2018-07-26T06:51:34.536Z,24.30
2018-07-26T06:54:02.957Z,24.40
2018-07-26T06:56:31.459Z,24.50
2018-07-26T06:58:59.805Z,24.40
2018-07-26T07:03:56.360Z,24.50
2018-07-26T07:06:24.724Z,24.40
2018-07-26T07:08:53.208Z,24.60
2018-07-26T07:11:21.600Z,24.80
2018-07-26T07:13:49.948Z,25.00
2018-07-26T07:16:18.857Z,25.30
2018-07-26T07:18:47.247Z,25.20
2018-07-26T07:21:15.823Z,25.30
2018-07-26T07:26:12.732Z,25.70
2018-07-26T07:28:41.188Z,26.00
2018-07-26T07:31:09.696Z,26.00
2018-07-26T07:33:38.036Z,26.20
2018-07-26T07:36:06.436Z,26.10
2018-07-26T07:38:34.975Z,26.20
2018-07-26T07:41:03.337Z,26.50
2018-07-26T07:43:31.703Z,26.50
2018-07-26T07:46:00.193Z,26.80
2018-07-26T07:48:28.719Z,26.80
2018-07-26T07:50:57.116Z,27.10
2018-07-26T07:53:25.519Z,27.20
2018-07-26T07:55:53.889Z,27.30
2018-07-26T07:58:22.951Z,27.40
2018-07-26T08:00:51.330Z,27.60
2018-07-26T08:03:19.740Z,27.50
2018-07-26T08:05:48.231Z,27.60
2018-07-26T08:08:16.709Z,28.00
2018-07-26T08:10:45.112Z,27.80
2018-07-26T08:13:13.483Z,27.70
2018-07-26T08:15:41.862Z,27.80
2018-07-26T08:18:10.258Z,27.90
2018-07-26T08:20:38.623Z,28.10
2018-07-26T08:23:07.089Z,28.20
2018-07-26T08:25:35.512Z,28.60
2018-07-26T08:28:03.887Z,28.80
2018-07-26T08:30:32.752Z,28.60
2018-07-26T08:33:01.172Z,28.80
2018-07-26T08:35:29.564Z,28.70
2018-07-26T08:37:58.061Z,29.00
2018-07-26T08:42:54.512Z,29.00
2018-07-26T08:45:22.878Z,28.80
2018-07-26T08:47:51.273Z,29.00
2018-07-26T08:50:19.647Z,29.20
2018-07-26T08:55:16.237Z,29.40
2018-07-26T08:57:44.616Z,29.90
2018-07-26T09:00:17.388Z,29.80
2018-07-26T09:02:46.679Z,29.90
2018-07-26T09:05:15.372Z,29.80
2018-07-26T09:07:44.167Z,30.10
2018-07-26T09:10:12.520Z,30.10
2018-07-26T09:12:40.921Z,30.80
2018-07-26T09:15:09.459Z,30.70
2018-07-26T09:17:37.840Z,30.80
2018-07-26T09:20:06.404Z,31.00
2018-07-26T09:22:34.937Z,31.60
2018-07-26T09:25:03.352Z,31.30
2018-07-26T09:27:31.696Z,31.10
2018-07-26T09:30:00.488Z,31.50
2018-07-26T09:32:29.054Z,31.90
2018-07-26T09:34:57.404Z,31.80
2018-07-26T09:37:25.971Z,31.90
2018-07-26T09:39:55.135Z,32.00
2018-07-26T09:42:23.519Z,32.10
2018-07-26T09:44:51.888Z,32.10
2018-07-26T09:49:48.339Z,32.40
2018-07-26T09:52:16.743Z,32.40
2018-07-26T09:54:45.532Z,32.70
2018-07-26T09:57:14.527Z,32.50
2018-07-26T09:59:43.276Z,32.70
2018-07-26T10:02:11.748Z,32.80
2018-07-26T10:04:40.176Z,32.60
2018-07-26T10:07:08.572Z,32.70
2018-07-26T10:09:37.205Z,33.20
2018-07-26T10:12:05.683Z,33.30
2018-07-26T10:17:02.145Z,33.40
2018-07-26T10:19:30.828Z,33.40
2018-07-26T10:21:59.538Z,32.80
2018-07-26T10:24:27.872Z,32.80
2018-07-26T10:26:56.216Z,33.40
2018-07-26T10:29:24.599Z,33.60
2018-07-26T10:31:52.971Z,33.70
2018-07-26T10:34:21.528Z,33.20
2018-07-26T10:36:50.362Z,33.10
2018-07-26T10:39:18.755Z,33.30
2018-07-26T10:41:47.136Z,33.40
2018-07-26T10:51:41.230Z,33.80
2018-07-26T10:54:09.721Z,34.10
2018-07-26T10:56:39.352Z,34.20
2018-07-26T10:59:08.860Z,34.10
2018-07-26T11:01:37.324Z,34.20
2018-07-26T11:04:05.881Z,34.10
2018-07-26T11:06:34.890Z,33.90
2018-07-26T11:09:03.712Z,34.20
2018-07-26T11:11:32.277Z,34.80
2018-07-26T11:14:03.416Z,35.10
2018-07-26T11:16:33.990Z,34.70
2018-07-26T11:19:03.921Z,34.50
2018-07-26T11:21:32.686Z,34.80
2018-07-26T11:24:03.716Z,35.40
2018-07-26T11:26:32.354Z,35.70
2018-07-26T11:29:01.720Z,35.30
2018-07-26T11:31:32.182Z,35.20
2018-07-26T11:34:01.176Z,35.10
2018-07-26T11:36:30.158Z,35.10
2018-07-26T11:38:58.813Z,35.00
2018-07-26T11:41:29.359Z,35.40
2018-07-26T11:43:58.208Z,35.50
2018-07-26T11:46:28.580Z,35.30
2018-07-26T11:48:57.150Z,35.20
2018-07-26T11:51:25.751Z,35.70
2018-07-26T11:53:55.096Z,35.60
2018-07-26T11:56:25.217Z,35.60
2018-07-26T11:58:54.415Z,35.40
2018-07-26T12:01:23.634Z,35.50
2018-07-26T12:03:52.283Z,36.10
2018-07-26T12:06:21.275Z,35.90
2018-07-26T12:08:51.674Z,36.20
2018-07-26T12:11:21.023Z,35.80
2018-07-26T12:13:49.520Z,35.90
2018-07-26T12:16:18.163Z,35.80
2018-07-26T12:18:47.737Z,35.80
2018-07-26T12:23:47.517Z,35.80
2018-07-26T12:26:24.113Z,35.80
2018-07-26T12:28:52.556Z,36.30
2018-07-26T12:31:20.992Z,36.00
2018-07-26T12:36:17.659Z,36.00
2018-07-26T12:38:47.652Z,36.20
2018-07-26T12:41:17.192Z,36.20
2018-07-26T12:43:45.593Z,36.50
2018-07-26T12:46:15.020Z,36.50
2018-07-26T12:48:43.675Z,36.60
2018-07-26T12:51:12.368Z,36.40
2018-07-26T12:53:40.856Z,36.50
2018-07-26T12:56:09.724Z,36.50
2018-07-26T12:58:38.139Z,36.40
2018-07-26T13:01:06.814Z,36.70
2018-07-26T13:03:36.140Z,36.30
2018-07-26T13:06:04.488Z,36.50
2018-07-26T13:08:32.929Z,37.00
2018-07-26T13:13:30.112Z,36.80
2018-07-26T13:16:02.720Z,36.60
2018-07-26T13:18:32.236Z,37.20
2018-07-26T13:21:01.785Z,37.20
2018-07-26T13:23:30.208Z,36.80
2018-07-26T13:25:58.569Z,36.70
2018-07-26T13:28:27.095Z,36.80
2018-07-26T13:30:55.562Z,36.40
2018-07-26T13:33:23.959Z,36.60
2018-07-26T13:35:52.370Z,36.80
2018-07-26T13:40:49.271Z,37.00
2018-07-26T13:43:17.615Z,36.70
2018-07-26T13:45:46.107Z,36.40
2018-07-26T13:48:14.471Z,36.20
2018-07-26T13:50:42.903Z,36.90
2018-07-26T13:53:11.516Z,37.00
2018-07-26T13:55:39.876Z,37.30
2018-07-26T13:58:08.231Z,37.80
2018-07-26T14:00:37.091Z,37.50
2018-07-26T14:03:05.496Z,37.20
2018-07-26T14:05:34.272Z,36.60
2018-07-26T14:08:03.099Z,37.00
2018-07-26T14:10:31.459Z,36.80
2018-07-26T14:12:59.859Z,36.70
2018-07-26T14:15:28.322Z,36.80
2018-07-26T14:17:56.892Z,37.30
2018-07-26T14:20:25.263Z,37.20
2018-07-26T14:22:53.867Z,37.30
2018-07-26T14:25:23.575Z,37.30
2018-07-26T14:27:52.015Z,37.30
2018-07-26T14:30:20.296Z,36.90
2018-07-26T14:32:48.656Z,36.80
2018-07-26T14:35:17.015Z,37.00
2018-07-26T14:37:46.357Z,37.00
2018-07-26T14:40:14.930Z,37.30
2018-07-26T14:42:43.402Z,37.50
2018-07-26T14:45:11.817Z,37.20
2018-07-26T14:47:40.156Z,36.90
2018-07-26T14:50:08.886Z,37.00
2018-07-26T14:52:37.487Z,37.00
2018-07-26T14:55:05.933Z,37.10
2018-07-26T14:57:34.963Z,37.10
2018-07-26T15:00:03.446Z,37.20
2018-07-26T15:02:31.811Z,37.60
2018-07-26T15:05:00.246Z,37.30
2018-07-26T15:07:28.644Z,36.90
2018-07-26T15:12:25.180Z,36.90
2018-07-26T15:14:53.560Z,36.60
2018-07-26T15:17:22.076Z,36.80
2018-07-26T15:22:18.736Z,36.50
2018-07-26T15:24:47.088Z,36.60
2018-07-26T15:27:15.720Z,36.60
2018-07-26T15:29:44.260Z,36.70
2018-07-26T15:32:12.608Z,36.40
2018-07-26T15:34:41.003Z,36.20
2018-07-26T15:37:09.510Z,36.40
2018-07-26T15:39:37.859Z,36.30
2018-07-26T15:42:06.502Z,36.00
2018-07-26T15:44:35.224Z,36.00
2018-07-26T15:47:03.567Z,35.80
2018-07-26T15:49:32.280Z,35.60
2018-07-26T15:52:00.663Z,35.50
2018-07-26T15:54:29.052Z,35.60
2018-07-26T15:56:57.411Z,35.60
2018-07-26T15:59:25.956Z,35.40
2018-07-26T16:01:54.332Z,35.30
2018-07-26T16:04:22.723Z,35.30
2018-07-26T16:06:51.102Z,35.30
2018-07-26T16:09:19.508Z,35.30
2018-07-26T16:11:47.891Z,35.40
2018-07-26T16:14:16.272Z,35.10
2018-07-26T16:16:44.703Z,35.20
2018-07-26T16:21:41.317Z,35.00
2018-07-26T16:24:09.692Z,35.10
2018-07-26T16:26:39.041Z,34.90
2018-07-26T16:29:09.066Z,34.90
2018-07-26T16:40:08.311Z,35.20
2018-07-26T16:42:43.415Z,35.00
2018-07-26T16:51:00.412Z,34.80
2018-07-26T16:53:41.860Z,34.70
2018-07-26T16:59:09.099Z,34.70
2018-07-26T17:01:39.971Z,34.70
2018-07-26T17:04:20.453Z,34.70
2018-07-26T17:09:17.188Z,34.40
2018-07-26T17:11:45.552Z,34.40
2018-07-26T17:14:14.054Z,34.40
2018-07-26T17:16:43.075Z,34.20
2018-07-26T17:21:40.052Z,34.20
2018-07-26T17:24:08.431Z,34.10
2018-07-26T17:29:05.008Z,34.10
2018-07-26T17:34:09.349Z,34.00
2018-07-26T17:36:37.768Z,33.90
2018-07-26T17:39:09.849Z,31.90
2018-07-26T17:41:38.334Z,31.50
2018-07-26T17:44:06.776Z,31.20
2018-07-26T17:46:35.409Z,31.00
2018-07-26T17:49:03.946Z,30.90
2018-07-26T17:51:34.480Z,30.90
2018-07-26T17:54:03.034Z,30.80
2018-07-26T17:56:31.433Z,30.30
2018-07-26T17:58:59.786Z,29.60
2018-07-26T18:01:28.548Z,29.30
2018-07-26T18:08:53.244Z,29.50
2018-07-26T18:11:22.268Z,29.90
2018-07-26T18:13:50.710Z,30.50
2018-07-26T18:16:22.332Z,29.40
2018-07-26T18:18:50.732Z,28.90
2018-07-26T18:21:19.401Z,28.80
2018-07-26T18:23:47.880Z,28.30
2018-07-26T18:26:16.367Z,28.20
2018-07-26T18:28:44.688Z,27.80
2018-07-26T18:31:13.177Z,27.70
2018-07-26T18:33:41.548Z,27.30
2018-07-26T18:36:09.930Z,27.30
2018-07-26T18:38:38.692Z,27.20
2018-07-26T18:41:07.197Z,27.20
2018-07-26T18:43:35.657Z,27.30
2018-07-26T18:46:04.224Z,27.30
2018-07-26T18:48:33.532Z,27.30
2018-07-26T18:51:01.905Z,27.30
2018-07-26T18:53:30.348Z,27.20
2018-07-26T18:58:27.007Z,27.20
2018-07-26T19:00:55.506Z,27.30
2018-07-26T19:05:52.086Z,27.20
2018-07-26T19:08:20.547Z,27.30
2018-07-26T19:10:48.899Z,27.40
2018-07-26T19:13:17.307Z,27.30
2018-07-26T19:15:46.223Z,27.20
2018-07-26T19:18:14.576Z,27.10
2018-07-26T19:20:43.447Z,27.30
2018-07-26T19:25:40.467Z,27.30
2018-07-26T19:28:08.605Z,27.30
2018-07-26T19:30:37.531Z,27.50
2018-07-26T19:33:05.903Z,27.60
2018-07-26T19:35:34.260Z,27.50
2018-07-26T19:38:02.599Z,27.50
2018-07-26T19:40:30.940Z,27.50
2018-07-26T19:43:00.308Z,27.50
2018-07-26T19:45:28.689Z,27.50
2018-07-26T19:47:57.019Z,27.40
2018-07-26T19:50:25.557Z,27.30
2018-07-26T19:52:54.156Z,27.30
2018-07-26T19:55:22.592Z,27.30
2018-07-26T20:00:19.696Z,27.20
2018-07-26T20:02:48.077Z,27.20
2018-07-26T20:05:16.487Z,27.20
2018-07-26T20:07:45.055Z,27.20
2018-07-26T20:10:13.956Z,27.10
2018-07-26T20:12:42.537Z,27.10
2018-07-26T20:15:10.942Z,27.10
2018-07-26T20:17:39.298Z,27.10
2018-07-26T20:20:09.472Z,27.00
2018-07-26T20:22:38.252Z,27.00
2018-07-26T20:25:06.690Z,27.00
2018-07-26T20:27:35.236Z,27.00
2018-07-26T20:30:05.005Z,26.80
2018-07-26T20:32:33.620Z,26.80
2018-07-26T20:37:31.008Z,26.60
2018-07-26T20:40:00.345Z,26.60
2018-07-26T20:42:29.032Z,26.50
2018-07-26T20:44:58.849Z,26.60
2018-07-26T20:47:27.498Z,26.40
2018-07-26T20:49:56.079Z,26.20
2018-07-26T20:52:26.362Z,26.00
2018-07-26T20:54:55.372Z,25.90
2018-07-26T20:59:53.240Z,25.80
2018-07-26T21:02:24.422Z,25.80
2018-07-26T21:04:53.171Z,25.80
2018-07-26T21:07:22.256Z,25.70
2018-07-26T21:09:50.751Z,25.60
2018-07-26T21:12:20.800Z,25.70
2018-07-26T21:14:50.239Z,25.60
2018-07-26T21:17:19.588Z,25.50
2018-07-26T21:19:48.205Z,25.50
2018-07-26T21:22:16.858Z,25.40
2018-07-26T21:24:45.496Z,25.40
2018-07-26T21:27:14.276Z,25.30
2018-07-26T21:29:42.919Z,25.30
2018-07-26T21:32:11.383Z,25.30
2018-07-26T21:34:39.846Z,25.30
2018-07-26T21:37:08.648Z,25.30
2018-07-26T21:39:37.073Z,25.30
2018-07-26T21:42:05.742Z,25.20
2018-07-26T21:44:34.235Z,25.20
2018-07-26T21:47:02.597Z,25.10
2018-07-26T21:49:31.173Z,25.20
2018-07-26T21:51:59.670Z,25.20
2018-07-26T21:54:29.115Z,25.10
2018-07-26T21:56:57.700Z,25.10
2018-07-26T21:59:26.784Z,25.10
2018-07-26T22:01:55.288Z,25.20
2018-07-26T22:04:23.854Z,25.10
2018-07-26T22:06:52.280Z,25.10
2018-07-26T22:09:20.701Z,25.00
2018-07-26T22:11:49.190Z,25.10
2018-07-26T22:14:17.601Z,25.10
2018-07-26T22:16:46.143Z,25.10
2018-07-26T22:19:15.939Z,25.20
2018-07-26T22:21:44.790Z,25.20
2018-07-26T22:24:13.195Z,25.20
2018-07-26T22:26:42.463Z,25.40
2018-07-26T22:29:11.265Z,25.50
2018-07-26T22:31:39.734Z,25.50
2018-07-26T22:34:09.100Z,25.40
2018-07-26T22:36:38.016Z,25.40
2018-07-26T22:39:09.834Z,25.30
2018-07-26T22:41:38.376Z,25.30
2018-07-26T22:44:07.856Z,25.40
2018-07-26T22:46:39.466Z,25.40
2018-07-26T22:52:07.559Z,25.50
2018-07-26T22:57:16.732Z,25.50
2018-07-26T23:02:30.472Z,25.40
2018-07-26T23:05:28.227Z,25.30
2018-07-26T23:08:25.989Z,25.30
2018-07-26T23:10:55.891Z,25.20
2018-07-26T23:13:24.297Z,25.20
2018-07-26T23:18:47.769Z,25.20
2018-07-26T23:21:16.212Z,25.20
2018-07-26T23:23:44.651Z,25.30
2018-07-26T23:26:13.275Z,25.30
2018-07-26T23:28:41.716Z,25.30
2018-07-26T23:31:10.173Z,25.30
2018-07-26T23:33:38.721Z,25.40
2018-07-26T23:36:07.185Z,25.50
2018-07-26T23:38:35.597Z,25.60
2018-07-26T23:41:04.263Z,25.70
2018-07-26T23:43:32.712Z,26.00
2018-07-26T23:46:01.125Z,25.90
2018-07-26T23:48:30.105Z,25.80
2018-07-26T23:50:58.515Z,25.90
2018-07-26T23:53:26.907Z,26.10
2018-07-26T23:55:55.462Z,26.20
2018-07-26T23:58:23.903Z,26.00
